sensor_id;sensor_type;location;lat;lon;timestamp;temperature;humidity
16102;DHT22;56411;52.964;10.540;2023-10-31T00:01:51;10.80;99.90
16102;DHT22;56411;52.964;10.540;2023-10-31T00:04:19;10.80;99.90
16102;DHT22;56411;52.964;10.540;2023-10-31T00:06:46;10.80;99.90
16102;DHT22;56411;52.964;10.540;2023-10-31T00:09:15;10.80;99.90
16102;DHT22;56411;52.964;10.540;2023-10-31T00:11:43;10.80;99.90
16102;DHT22;56411;52.964;10.540;2023-10-31T00:14:10;10.80;99.90
16102;DHT22;56411;52.964;10.540;2023-10-31T00:16:37;10.80;99.90
16102;DHT22;56411;52.964;10.540;2023-10-31T00:19:04;10.80;99.90
16102;DHT22;56411;52.964;10.540;2023-10-31T00:21:31;10.80;99.90
16102;DHT22;56411;52.964;10.540;2023-10-31T00:23:59;10.80;99.90
16102;DHT22;56411;52.964;10.540;2023-10-31T00:26:27;10.80;99.90
16102;DHT22;56411;52.964;10.540;2023-10-31T00:28:54;10.70;99.90
16102;DHT22;56411;52.964;10.540;2023-10-31T00:31:21;10.70;99.90
16102;DHT22;56411;52.964;10.540;2023-10-31T00:33:48;10.80;99.90
16102;DHT22;56411;52.964;10.540;2023-10-31T00:36:15;10.70;99.90
16102;DHT22;56411;52.964;10.540;2023-10-31T00:38:43;10.70;99.90
16102;DHT22;56411;52.964;10.540;2023-10-31T00:41:09;10.80;99.90
16102;DHT22;56411;52.964;10.540;2023-10-31T00:43:38;10.80;99.90
16102;DHT22;56411;52.964;10.540;2023-10-31T00:46:05;10.80;99.90
16102;DHT22;56411;52.964;10.540;2023-10-31T00:48:32;10.80;99.90
16102;DHT22;56411;52.964;10.540;2023-10-31T00:51:02;10.80;99.90
16102;DHT22;56411;52.964;10.540;2023-10-31T00:53:29;10.80;99.90
16102;DHT22;56411;52.964;10.540;2023-10-31T00:55:56;10.90;99.90
16102;DHT22;56411;52.964;10.540;2023-10-31T00:58:23;10.90;99.90
16102;DHT22;56411;52.964;10.540;2023-10-31T01:00:52;10.90;99.90
16102;DHT22;56411;52.964;10.540;2023-10-31T01:03:19;10.90;99.90
16102;DHT22;56411;52.964;10.540;2023-10-31T01:05:46;10.90;99.90
16102;DHT22;56411;52.964;10.540;2023-10-31T01:08:13;10.90;99.90
16102;DHT22;56411;52.964;10.540;2023-10-31T01:10:40;10.90;99.90
16102;DHT22;56411;52.964;10.540;2023-10-31T01:13:08;10.90;99.90
16102;DHT22;56411;52.964;10.540;2023-10-31T01:15:35;10.90;99.90
16102;DHT22;56411;52.964;10.540;2023-10-31T01:18:03;10.90;99.90
16102;DHT22;56411;52.964;10.540;2023-10-31T01:20:31;10.90;99.90
16102;DHT22;56411;52.964;10.540;2023-10-31T01:22:58;10.90;99.90
16102;DHT22;56411;52.964;10.540;2023-10-31T01:25:25;10.90;99.90
16102;DHT22;56411;52.964;10.540;2023-10-31T01:27:52;10.90;99.90
16102;DHT22;56411;52.964;10.540;2023-10-31T01:30:20;10.90;99.90
16102;DHT22;56411;52.964;10.540;2023-10-31T01:32:47;10.90;99.90
16102;DHT22;56411;52.964;10.540;2023-10-31T01:35:15;10.90;99.90
16102;DHT22;56411;52.964;10.540;2023-10-31T01:37:42;10.90;99.90
16102;DHT22;56411;52.964;10.540;2023-10-31T01:40:12;11.00;99.90
16102;DHT22;56411;52.964;10.540;2023-10-31T01:42:39;11.00;99.90
16102;DHT22;56411;52.964;10.540;2023-10-31T01:45:08;10.90;99.90
16102;DHT22;56411;52.964;10.540;2023-10-31T01:47:35;10.90;99.90
16102;DHT22;56411;52.964;10.540;2023-10-31T01:50:03;11.00;99.90
16102;DHT22;56411;52.964;10.540;2023-10-31T01:52:31;11.00;99.90
16102;DHT22;56411;52.964;10.540;2023-10-31T01:54:59;11.00;99.90
16102;DHT22;56411;52.964;10.540;2023-10-31T01:57:26;11.00;99.90
16102;DHT22;56411;52.964;10.540;2023-10-31T01:59:53;11.00;99.90
16102;DHT22;56411;52.964;10.540;2023-10-31T02:02:23;11.00;99.90
16102;DHT22;56411;52.964;10.540;2023-10-31T02:04:50;11.00;99.90
16102;DHT22;56411;52.964;10.540;2023-10-31T02:07:17;11.00;99.90
16102;DHT22;56411;52.964;10.540;2023-10-31T02:09:45;11.00;99.90
16102;DHT22;56411;52.964;10.540;2023-10-31T02:12:31;11.10;99.90
16102;DHT22;56411;52.964;10.540;2023-10-31T02:14:58;11.10;99.90
16102;DHT22;56411;52.964;10.540;2023-10-31T02:17:25;11.10;99.90
16102;DHT22;56411;52.964;10.540;2023-10-31T02:19:52;11.10;99.90
16102;DHT22;56411;52.964;10.540;2023-10-31T02:22:21;11.10;99.90
16102;DHT22;56411;52.964;10.540;2023-10-31T02:24:48;11.10;99.90
16102;DHT22;56411;52.964;10.540;2023-10-31T02:27:15;11.10;99.90
16102;DHT22;56411;52.964;10.540;2023-10-31T02:29:42;11.10;99.90
16102;DHT22;56411;52.964;10.540;2023-10-31T02:32:09;11.10;99.90
16102;DHT22;56411;52.964;10.540;2023-10-31T02:34:36;11.10;99.90
16102;DHT22;56411;52.964;10.540;2023-10-31T02:37:03;11.10;99.90
16102;DHT22;56411;52.964;10.540;2023-10-31T02:39:32;11.10;99.90
16102;DHT22;56411;52.964;10.540;2023-10-31T02:41:59;11.10;99.90
16102;DHT22;56411;52.964;10.540;2023-10-31T02:44:26;11.10;99.90
16102;DHT22;56411;52.964;10.540;2023-10-31T02:46:53;11.20;99.90
16102;DHT22;56411;52.964;10.540;2023-10-31T02:49:21;11.20;99.90
16102;DHT22;56411;52.964;10.540;2023-10-31T02:51:49;11.20;99.90
16102;DHT22;56411;52.964;10.540;2023-10-31T02:54:15;11.30;99.90
16102;DHT22;56411;52.964;10.540;2023-10-31T02:56:44;11.30;99.90
16102;DHT22;56411;52.964;10.540;2023-10-31T02:59:11;11.30;99.90
16102;DHT22;56411;52.964;10.540;2023-10-31T03:01:38;11.30;99.90
16102;DHT22;56411;52.964;10.540;2023-10-31T03:04:05;11.30;99.90
16102;DHT22;56411;52.964;10.540;2023-10-31T03:06:32;11.30;99.90
16102;DHT22;56411;52.964;10.540;2023-10-31T03:08:59;11.30;99.90
16102;DHT22;56411;52.964;10.540;2023-10-31T03:11:27;11.30;99.90
16102;DHT22;56411;52.964;10.540;2023-10-31T03:13:55;11.30;99.90
16102;DHT22;56411;52.964;10.540;2023-10-31T03:16:23;11.40;99.90
16102;DHT22;56411;52.964;10.540;2023-10-31T03:18:51;11.40;99.90
16102;DHT22;56411;52.964;10.540;2023-10-31T03:21:18;11.40;99.90
16102;DHT22;56411;52.964;10.540;2023-10-31T03:23:48;11.40;99.90
16102;DHT22;56411;52.964;10.540;2023-10-31T03:26:15;11.40;99.90
16102;DHT22;56411;52.964;10.540;2023-10-31T03:28:43;11.40;99.90
16102;DHT22;56411;52.964;10.540;2023-10-31T03:31:13;11.40;99.90
16102;DHT22;56411;52.964;10.540;2023-10-31T03:33:40;11.50;99.90
16102;DHT22;56411;52.964;10.540;2023-10-31T03:36:08;11.50;99.90
16102;DHT22;56411;52.964;10.540;2023-10-31T03:38:35;11.50;99.90
16102;DHT22;56411;52.964;10.540;2023-10-31T03:41:03;11.50;99.90
16102;DHT22;56411;52.964;10.540;2023-10-31T03:43:31;11.50;99.90
16102;DHT22;56411;52.964;10.540;2023-10-31T03:45:58;11.50;99.90
16102;DHT22;56411;52.964;10.540;2023-10-31T03:48:27;11.60;99.90
16102;DHT22;56411;52.964;10.540;2023-10-31T03:50:53;11.60;99.90
16102;DHT22;56411;52.964;10.540;2023-10-31T03:53:20;11.60;99.90
16102;DHT22;56411;52.964;10.540;2023-10-31T03:55:47;11.60;99.90
16102;DHT22;56411;52.964;10.540;2023-10-31T03:58:14;11.60;99.90
16102;DHT22;56411;52.964;10.540;2023-10-31T04:00:41;11.60;99.90
16102;DHT22;56411;52.964;10.540;2023-10-31T04:03:09;11.70;99.90
16102;DHT22;56411;52.964;10.540;2023-10-31T04:05:37;11.70;99.90
16102;DHT22;56411;52.964;10.540;2023-10-31T04:08:04;11.70;99.90
16102;DHT22;56411;52.964;10.540;2023-10-31T04:10:31;11.70;99.90
16102;DHT22;56411;52.964;10.540;2023-10-31T04:12:58;11.70;99.90
16102;DHT22;56411;52.964;10.540;2023-10-31T04:15:26;11.70;99.90
16102;DHT22;56411;52.964;10.540;2023-10-31T04:17:53;11.70;99.90
16102;DHT22;56411;52.964;10.540;2023-10-31T04:20:20;11.70;99.90
16102;DHT22;56411;52.964;10.540;2023-10-31T04:22:48;11.80;99.90
16102;DHT22;56411;52.964;10.540;2023-10-31T04:25:15;11.70;99.90
16102;DHT22;56411;52.964;10.540;2023-10-31T04:27:42;11.70;99.90
16102;DHT22;56411;52.964;10.540;2023-10-31T04:30:10;11.70;99.90
16102;DHT22;56411;52.964;10.540;2023-10-31T04:32:37;11.70;99.90
16102;DHT22;56411;52.964;10.540;2023-10-31T04:35:05;11.70;99.90
16102;DHT22;56411;52.964;10.540;2023-10-31T04:37:32;11.70;99.90
16102;DHT22;56411;52.964;10.540;2023-10-31T04:40:01;11.70;99.90
16102;DHT22;56411;52.964;10.540;2023-10-31T04:42:28;11.70;99.90
16102;DHT22;56411;52.964;10.540;2023-10-31T04:44:57;11.80;99.90
16102;DHT22;56411;52.964;10.540;2023-10-31T04:47:24;11.70;99.90
16102;DHT22;56411;52.964;10.540;2023-10-31T04:49:51;11.70;99.90
16102;DHT22;56411;52.964;10.540;2023-10-31T04:52:18;11.70;99.90
16102;DHT22;56411;52.964;10.540;2023-10-31T04:54:48;11.80;99.90
16102;DHT22;56411;52.964;10.540;2023-10-31T04:57:16;11.70;99.90
16102;DHT22;56411;52.964;10.540;2023-10-31T04:59:44;11.70;99.90
16102;DHT22;56411;52.964;10.540;2023-10-31T05:02:11;11.70;99.90
16102;DHT22;56411;52.964;10.540;2023-10-31T05:04:38;11.70;99.90
16102;DHT22;56411;52.964;10.540;2023-10-31T05:07:06;11.70;99.90
16102;DHT22;56411;52.964;10.540;2023-10-31T05:09:34;11.70;99.90
16102;DHT22;56411;52.964;10.540;2023-10-31T05:12:01;11.70;99.90
16102;DHT22;56411;52.964;10.540;2023-10-31T05:14:33;11.70;99.90
16102;DHT22;56411;52.964;10.540;2023-10-31T05:17:00;11.70;99.90
16102;DHT22;56411;52.964;10.540;2023-10-31T05:19:28;11.70;99.90
16102;DHT22;56411;52.964;10.540;2023-10-31T05:21:55;11.70;99.90
16102;DHT22;56411;52.964;10.540;2023-10-31T05:24:22;11.70;99.90
16102;DHT22;56411;52.964;10.540;2023-10-31T05:26:49;11.70;99.90
16102;DHT22;56411;52.964;10.540;2023-10-31T05:29:16;11.80;99.90
16102;DHT22;56411;52.964;10.540;2023-10-31T05:31:45;11.80;99.90
16102;DHT22;56411;52.964;10.540;2023-10-31T05:34:12;11.80;99.90
16102;DHT22;56411;52.964;10.540;2023-10-31T05:36:39;11.80;99.90
16102;DHT22;56411;52.964;10.540;2023-10-31T05:39:06;11.70;99.90
16102;DHT22;56411;52.964;10.540;2023-10-31T05:41:35;11.60;99.90
16102;DHT22;56411;52.964;10.540;2023-10-31T05:44:02;11.40;99.90
16102;DHT22;56411;52.964;10.540;2023-10-31T05:46:29;11.30;99.90
16102;DHT22;56411;52.964;10.540;2023-10-31T05:48:58;11.20;99.90
16102;DHT22;56411;52.964;10.540;2023-10-31T05:51:25;11.20;99.90
16102;DHT22;56411;52.964;10.540;2023-10-31T05:53:52;11.10;99.90
16102;DHT22;56411;52.964;10.540;2023-10-31T05:56:19;11.00;99.90
16102;DHT22;56411;52.964;10.540;2023-10-31T05:58:46;11.00;99.90
16102;DHT22;56411;52.964;10.540;2023-10-31T06:01:13;10.90;99.90
16102;DHT22;56411;52.964;10.540;2023-10-31T06:03:41;10.90;99.90
16102;DHT22;56411;52.964;10.540;2023-10-31T06:06:11;10.90;99.90
16102;DHT22;56411;52.964;10.540;2023-10-31T06:08:38;10.80;99.90
16102;DHT22;56411;52.964;10.540;2023-10-31T06:11:07;10.70;99.90
16102;DHT22;56411;52.964;10.540;2023-10-31T06:13:34;10.70;99.90
16102;DHT22;56411;52.964;10.540;2023-10-31T06:16:01;10.70;99.90
16102;DHT22;56411;52.964;10.540;2023-10-31T06:18:28;10.60;99.90
16102;DHT22;56411;52.964;10.540;2023-10-31T06:20:56;10.60;99.90
16102;DHT22;56411;52.964;10.540;2023-10-31T06:23:24;10.60;99.90
16102;DHT22;56411;52.964;10.540;2023-10-31T06:25:51;10.50;99.90
16102;DHT22;56411;52.964;10.540;2023-10-31T06:28:18;10.50;99.90
16102;DHT22;56411;52.964;10.540;2023-10-31T06:30:46;10.50;99.90
16102;DHT22;56411;52.964;10.540;2023-10-31T06:33:13;10.50;99.90
16102;DHT22;56411;52.964;10.540;2023-10-31T06:35:40;10.50;99.90
16102;DHT22;56411;52.964;10.540;2023-10-31T06:38:07;10.40;99.90
16102;DHT22;56411;52.964;10.540;2023-10-31T06:40:35;10.40;99.90
16102;DHT22;56411;52.964;10.540;2023-10-31T06:43:02;10.40;99.90
16102;DHT22;56411;52.964;10.540;2023-10-31T06:45:33;10.30;99.90
16102;DHT22;56411;52.964;10.540;2023-10-31T06:48:00;10.30;99.90
16102;DHT22;56411;52.964;10.540;2023-10-31T06:50:27;10.20;99.90
16102;DHT22;56411;52.964;10.540;2023-10-31T06:52:55;10.20;99.90
16102;DHT22;56411;52.964;10.540;2023-10-31T06:55:22;10.10;99.90
16102;DHT22;56411;52.964;10.540;2023-10-31T06:57:50;10.10;99.90
16102;DHT22;56411;52.964;10.540;2023-10-31T07:00:17;10.10;99.90
16102;DHT22;56411;52.964;10.540;2023-10-31T07:02:45;10.00;99.90
16102;DHT22;56411;52.964;10.540;2023-10-31T07:05:13;10.00;99.90
16102;DHT22;56411;52.964;10.540;2023-10-31T07:07:41;10.00;99.90
16102;DHT22;56411;52.964;10.540;2023-10-31T07:10:08;10.00;99.90
16102;DHT22;56411;52.964;10.540;2023-10-31T07:12:35;10.00;99.90
16102;DHT22;56411;52.964;10.540;2023-10-31T07:15:04;10.00;99.90
16102;DHT22;56411;52.964;10.540;2023-10-31T07:17:31;10.00;99.90
16102;DHT22;56411;52.964;10.540;2023-10-31T07:19:59;9.90;99.90
16102;DHT22;56411;52.964;10.540;2023-10-31T07:22:26;9.90;99.90
16102;DHT22;56411;52.964;10.540;2023-10-31T07:24:53;10.00;99.90
16102;DHT22;56411;52.964;10.540;2023-10-31T07:27:20;10.00;99.90
16102;DHT22;56411;52.964;10.540;2023-10-31T07:29:47;10.00;99.90
16102;DHT22;56411;52.964;10.540;2023-10-31T07:32:16;10.00;99.90
16102;DHT22;56411;52.964;10.540;2023-10-31T07:34:43;10.00;99.90
16102;DHT22;56411;52.964;10.540;2023-10-31T07:37:10;10.10;99.90
16102;DHT22;56411;52.964;10.540;2023-10-31T07:39:37;10.00;99.90
16102;DHT22;56411;52.964;10.540;2023-10-31T07:42:05;10.00;99.90
16102;DHT22;56411;52.964;10.540;2023-10-31T07:44:33;10.00;99.90
16102;DHT22;56411;52.964;10.540;2023-10-31T07:47:00;10.00;99.90
16102;DHT22;56411;52.964;10.540;2023-10-31T07:49:29;10.00;99.90
16102;DHT22;56411;52.964;10.540;2023-10-31T07:51:56;10.00;99.90
16102;DHT22;56411;52.964;10.540;2023-10-31T07:54:23;10.10;99.90
16102;DHT22;56411;52.964;10.540;2023-10-31T07:56:50;10.10;99.90
16102;DHT22;56411;52.964;10.540;2023-10-31T07:59:17;10.10;99.90
16102;DHT22;56411;52.964;10.540;2023-10-31T08:01:44;10.10;99.90
16102;DHT22;56411;52.964;10.540;2023-10-31T08:04:11;10.10;99.90
16102;DHT22;56411;52.964;10.540;2023-10-31T08:06:42;10.10;99.90
16102;DHT22;56411;52.964;10.540;2023-10-31T08:09:09;10.10;99.90
16102;DHT22;56411;52.964;10.540;2023-10-31T08:11:36;10.10;99.90
16102;DHT22;56411;52.964;10.540;2023-10-31T08:14:03;10.20;99.90
16102;DHT22;56411;52.964;10.540;2023-10-31T08:16:30;10.20;99.90
16102;DHT22;56411;52.964;10.540;2023-10-31T08:18:57;10.20;99.90
16102;DHT22;56411;52.964;10.540;2023-10-31T08:21:24;10.20;99.90
16102;DHT22;56411;52.964;10.540;2023-10-31T08:23:55;10.20;99.90
16102;DHT22;56411;52.964;10.540;2023-10-31T08:26:22;10.30;99.90
16102;DHT22;56411;52.964;10.540;2023-10-31T08:28:49;10.30;99.90
16102;DHT22;56411;52.964;10.540;2023-10-31T08:31:17;10.30;99.90
16102;DHT22;56411;52.964;10.540;2023-10-31T08:33:44;10.40;99.90
16102;DHT22;56411;52.964;10.540;2023-10-31T08:36:11;10.40;99.90
16102;DHT22;56411;52.964;10.540;2023-10-31T08:38:38;10.40;99.90
16102;DHT22;56411;52.964;10.540;2023-10-31T08:41:06;10.40;99.90
16102;DHT22;56411;52.964;10.540;2023-10-31T08:43:34;10.40;99.90
16102;DHT22;56411;52.964;10.540;2023-10-31T08:46:01;10.40;99.90
16102;DHT22;56411;52.964;10.540;2023-10-31T08:48:28;10.50;99.90
16102;DHT22;56411;52.964;10.540;2023-10-31T08:50:55;10.50;99.90
16102;DHT22;56411;52.964;10.540;2023-10-31T08:53:22;10.50;99.90
16102;DHT22;56411;52.964;10.540;2023-10-31T08:55:50;10.60;99.90
16102;DHT22;56411;52.964;10.540;2023-10-31T08:58:18;10.70;99.90
16102;DHT22;56411;52.964;10.540;2023-10-31T09:00:45;10.80;99.90
16102;DHT22;56411;52.964;10.540;2023-10-31T09:03:12;11.00;99.90
16102;DHT22;56411;52.964;10.540;2023-10-31T09:05:40;11.10;99.90
16102;DHT22;56411;52.964;10.540;2023-10-31T09:08:07;11.20;99.90
16102;DHT22;56411;52.964;10.540;2023-10-31T09:10:36;11.10;99.90
16102;DHT22;56411;52.964;10.540;2023-10-31T09:13:04;11.10;99.90
16102;DHT22;56411;52.964;10.540;2023-10-31T09:15:33;11.10;99.90
16102;DHT22;56411;52.964;10.540;2023-10-31T09:18:00;11.10;99.90
16102;DHT22;56411;52.964;10.540;2023-10-31T09:20:27;11.00;99.90
16102;DHT22;56411;52.964;10.540;2023-10-31T09:22:55;11.00;99.90
16102;DHT22;56411;52.964;10.540;2023-10-31T09:25:22;11.00;99.90
16102;DHT22;56411;52.964;10.540;2023-10-31T09:27:49;11.00;99.90
16102;DHT22;56411;52.964;10.540;2023-10-31T09:30:16;11.00;99.90
16102;DHT22;56411;52.964;10.540;2023-10-31T09:32:45;11.00;99.90
16102;DHT22;56411;52.964;10.540;2023-10-31T09:35:12;11.00;99.90
16102;DHT22;56411;52.964;10.540;2023-10-31T09:37:39;11.00;99.90
16102;DHT22;56411;52.964;10.540;2023-10-31T09:40:08;11.00;99.90
16102;DHT22;56411;52.964;10.540;2023-10-31T09:42:36;11.00;99.90
16102;DHT22;56411;52.964;10.540;2023-10-31T09:45:03;11.00;99.90
16102;DHT22;56411;52.964;10.540;2023-10-31T09:47:30;11.00;99.90
16102;DHT22;56411;52.964;10.540;2023-10-31T09:50:00;11.00;99.90
16102;DHT22;56411;52.964;10.540;2023-10-31T09:52:27;11.00;99.90
16102;DHT22;56411;52.964;10.540;2023-10-31T09:54:55;11.00;99.90
16102;DHT22;56411;52.964;10.540;2023-10-31T09:57:22;11.00;99.90
16102;DHT22;56411;52.964;10.540;2023-10-31T09:59:52;11.00;99.90
16102;DHT22;56411;52.964;10.540;2023-10-31T10:02:18;11.00;99.90
16102;DHT22;56411;52.964;10.540;2023-10-31T10:04:46;11.10;99.90
16102;DHT22;56411;52.964;10.540;2023-10-31T10:07:17;11.30;99.90
16102;DHT22;56411;52.964;10.540;2023-10-31T10:09:44;11.50;99.90
16102;DHT22;56411;52.964;10.540;2023-10-31T10:12:12;11.80;99.90
16102;DHT22;56411;52.964;10.540;2023-10-31T10:14:39;11.80;99.90
16102;DHT22;56411;52.964;10.540;2023-10-31T10:17:14;11.70;99.90
16102;DHT22;56411;52.964;10.540;2023-10-31T10:19:42;11.70;99.90
16102;DHT22;56411;52.964;10.540;2023-10-31T10:22:09;11.60;99.90
16102;DHT22;56411;52.964;10.540;2023-10-31T10:24:41;11.60;99.90
16102;DHT22;56411;52.964;10.540;2023-10-31T10:27:08;11.60;99.90
16102;DHT22;56411;52.964;10.540;2023-10-31T10:29:52;11.60;99.90
16102;DHT22;56411;52.964;10.540;2023-10-31T10:32:19;11.60;99.90
16102;DHT22;56411;52.964;10.540;2023-10-31T10:34:46;11.50;99.90
16102;DHT22;56411;52.964;10.540;2023-10-31T10:37:13;11.50;99.90
16102;DHT22;56411;52.964;10.540;2023-10-31T10:39:44;11.50;99.90
16102;DHT22;56411;52.964;10.540;2023-10-31T10:42:17;11.40;99.90
16102;DHT22;56411;52.964;10.540;2023-10-31T10:44:44;11.40;99.90
16102;DHT22;56411;52.964;10.540;2023-10-31T10:47:13;11.40;99.90
16102;DHT22;56411;52.964;10.540;2023-10-31T10:49:42;11.30;99.90
16102;DHT22;56411;52.964;10.540;2023-10-31T10:52:17;11.20;99.90
16102;DHT22;56411;52.964;10.540;2023-10-31T10:54:52;11.20;99.90
16102;DHT22;56411;52.964;10.540;2023-10-31T10:57:27;11.20;99.90
16102;DHT22;56411;52.964;10.540;2023-10-31T11:00:02;11.30;99.90
16102;DHT22;56411;52.964;10.540;2023-10-31T11:02:30;11.30;99.90
16102;DHT22;56411;52.964;10.540;2023-10-31T11:05:00;11.30;99.90
16102;DHT22;56411;52.964;10.540;2023-10-31T11:07:27;11.10;99.90
16102;DHT22;56411;52.964;10.540;2023-10-31T11:09:57;11.00;99.90
16102;DHT22;56411;52.964;10.540;2023-10-31T11:12:28;10.90;99.90
16102;DHT22;56411;52.964;10.540;2023-10-31T11:14:56;10.90;99.90
16102;DHT22;56411;52.964;10.540;2023-10-31T11:17:26;10.90;99.90
16102;DHT22;56411;52.964;10.540;2023-10-31T11:19:54;10.90;99.90
16102;DHT22;56411;52.964;10.540;2023-10-31T11:22:22;10.90;99.90
16102;DHT22;56411;52.964;10.540;2023-10-31T11:24:53;11.00;99.90
16102;DHT22;56411;52.964;10.540;2023-10-31T11:27:34;11.20;99.90
16102;DHT22;56411;52.964;10.540;2023-10-31T11:30:02;11.30;99.90
16102;DHT22;56411;52.964;10.540;2023-10-31T11:32:32;11.40;99.90
16102;DHT22;56411;52.964;10.540;2023-10-31T11:35:00;11.40;99.90
16102;DHT22;56411;52.964;10.540;2023-10-31T11:37:32;11.40;99.90
16102;DHT22;56411;52.964;10.540;2023-10-31T11:40:16;11.40;99.90
16102;DHT22;56411;52.964;10.540;2023-10-31T11:42:48;11.50;99.90
16102;DHT22;56411;52.964;10.540;2023-10-31T11:45:26;11.50;99.90
16102;DHT22;56411;52.964;10.540;2023-10-31T11:47:54;11.40;99.90
16102;DHT22;56411;52.964;10.540;2023-10-31T11:50:21;11.20;99.90
16102;DHT22;56411;52.964;10.540;2023-10-31T11:53:07;11.00;99.90
16102;DHT22;56411;52.964;10.540;2023-10-31T11:55:40;10.70;99.90
16102;DHT22;56411;52.964;10.540;2023-10-31T11:58:19;10.30;99.90
16102;DHT22;56411;52.964;10.540;2023-10-31T12:00:48;10.20;99.90
16102;DHT22;56411;52.964;10.540;2023-10-31T12:03:16;10.10;99.90
16102;DHT22;56411;52.964;10.540;2023-10-31T12:05:54;9.90;99.90
16102;DHT22;56411;52.964;10.540;2023-10-31T12:08:25;9.80;99.90
16102;DHT22;56411;52.964;10.540;2023-10-31T12:10:53;9.70;99.90
16102;DHT22;56411;52.964;10.540;2023-10-31T12:13:21;9.60;99.90
16102;DHT22;56411;52.964;10.540;2023-10-31T12:15:52;9.60;99.90
16102;DHT22;56411;52.964;10.540;2023-10-31T12:18:19;9.60;99.90
16102;DHT22;56411;52.964;10.540;2023-10-31T12:20:50;9.60;99.90
16102;DHT22;56411;52.964;10.540;2023-10-31T12:23:18;9.70;99.90
16102;DHT22;56411;52.964;10.540;2023-10-31T12:25:49;9.60;99.90
16102;DHT22;56411;52.964;10.540;2023-10-31T12:28:21;9.60;99.90
16102;DHT22;56411;52.964;10.540;2023-10-31T12:30:50;9.70;99.90
16102;DHT22;56411;52.964;10.540;2023-10-31T12:33:17;9.70;99.90
16102;DHT22;56411;52.964;10.540;2023-10-31T12:35:44;9.80;99.90
16102;DHT22;56411;52.964;10.540;2023-10-31T12:38:12;9.80;99.90
16102;DHT22;56411;52.964;10.540;2023-10-31T12:40:40;9.80;99.90
16102;DHT22;56411;52.964;10.540;2023-10-31T12:43:08;9.90;99.90
16102;DHT22;56411;52.964;10.540;2023-10-31T12:45:37;9.90;99.90
16102;DHT22;56411;52.964;10.540;2023-10-31T12:48:05;9.90;99.90
16102;DHT22;56411;52.964;10.540;2023-10-31T12:50:34;9.80;99.90
16102;DHT22;56411;52.964;10.540;2023-10-31T12:53:02;9.80;99.90
16102;DHT22;56411;52.964;10.540;2023-10-31T12:55:31;9.70;99.90
16102;DHT22;56411;52.964;10.540;2023-10-31T12:57:58;9.70;99.90
16102;DHT22;56411;52.964;10.540;2023-10-31T13:00:31;9.70;99.90
16102;DHT22;56411;52.964;10.540;2023-10-31T13:03:02;9.90;99.90
16102;DHT22;56411;52.964;10.540;2023-10-31T13:05:30;10.10;99.90
16102;DHT22;56411;52.964;10.540;2023-10-31T13:07:58;10.20;99.90
16102;DHT22;56411;52.964;10.540;2023-10-31T13:10:27;10.20;99.90
16102;DHT22;56411;52.964;10.540;2023-10-31T13:12:55;10.30;99.90
16102;DHT22;56411;52.964;10.540;2023-10-31T13:15:23;10.40;99.90
16102;DHT22;56411;52.964;10.540;2023-10-31T13:17:50;10.50;99.90
16102;DHT22;56411;52.964;10.540;2023-10-31T13:20:20;10.50;99.90
16102;DHT22;56411;52.964;10.540;2023-10-31T13:22:47;10.50;99.90
16102;DHT22;56411;52.964;10.540;2023-10-31T13:25:15;10.50;99.90
16102;DHT22;56411;52.964;10.540;2023-10-31T13:27:44;10.40;99.90
16102;DHT22;56411;52.964;10.540;2023-10-31T13:30:16;10.40;99.90
16102;DHT22;56411;52.964;10.540;2023-10-31T13:32:44;10.40;99.90
16102;DHT22;56411;52.964;10.540;2023-10-31T13:35:11;10.30;99.90
16102;DHT22;56411;52.964;10.540;2023-10-31T13:37:44;10.30;99.90
16102;DHT22;56411;52.964;10.540;2023-10-31T13:40:11;10.30;99.90
16102;DHT22;56411;52.964;10.540;2023-10-31T13:42:39;10.20;99.90
16102;DHT22;56411;52.964;10.540;2023-10-31T13:45:06;10.20;99.90
16102;DHT22;56411;52.964;10.540;2023-10-31T13:47:33;10.20;99.90
16102;DHT22;56411;52.964;10.540;2023-10-31T13:50:00;10.20;99.90
16102;DHT22;56411;52.964;10.540;2023-10-31T13:52:27;10.20;99.90
16102;DHT22;56411;52.964;10.540;2023-10-31T13:54:56;10.20;99.90
16102;DHT22;56411;52.964;10.540;2023-10-31T13:57:23;10.30;99.90
16102;DHT22;56411;52.964;10.540;2023-10-31T13:59:50;10.30;99.90
16102;DHT22;56411;52.964;10.540;2023-10-31T14:02:17;10.30;99.90
16102;DHT22;56411;52.964;10.540;2023-10-31T14:04:45;10.30;99.90
16102;DHT22;56411;52.964;10.540;2023-10-31T14:07:18;10.30;99.90
16102;DHT22;56411;52.964;10.540;2023-10-31T14:09:47;10.30;99.90
16102;DHT22;56411;52.964;10.540;2023-10-31T14:12:16;10.30;99.90
16102;DHT22;56411;52.964;10.540;2023-10-31T14:14:43;10.40;99.90
16102;DHT22;56411;52.964;10.540;2023-10-31T14:17:13;10.40;99.90
16102;DHT22;56411;52.964;10.540;2023-10-31T14:19:40;10.40;99.90
16102;DHT22;56411;52.964;10.540;2023-10-31T14:22:08;10.40;99.90
16102;DHT22;56411;52.964;10.540;2023-10-31T14:24:35;10.40;99.90
16102;DHT22;56411;52.964;10.540;2023-10-31T14:27:02;10.50;99.90
16102;DHT22;56411;52.964;10.540;2023-10-31T14:29:30;10.50;99.90
16102;DHT22;56411;52.964;10.540;2023-10-31T14:32:05;10.50;99.90
16102;DHT22;56411;52.964;10.540;2023-10-31T14:34:32;10.50;99.90
16102;DHT22;56411;52.964;10.540;2023-10-31T14:36:59;10.50;99.90
16102;DHT22;56411;52.964;10.540;2023-10-31T14:39:26;10.50;99.90
16102;DHT22;56411;52.964;10.540;2023-10-31T14:41:54;10.60;99.90
16102;DHT22;56411;52.964;10.540;2023-10-31T14:44:21;10.50;99.90
16102;DHT22;56411;52.964;10.540;2023-10-31T14:46:50;10.50;99.90
16102;DHT22;56411;52.964;10.540;2023-10-31T14:49:17;10.50;99.90
16102;DHT22;56411;52.964;10.540;2023-10-31T14:51:44;10.60;99.90
16102;DHT22;56411;52.964;10.540;2023-10-31T14:54:11;10.50;99.90
16102;DHT22;56411;52.964;10.540;2023-10-31T14:56:39;10.50;99.90
16102;DHT22;56411;52.964;10.540;2023-10-31T14:59:07;10.50;99.90
16102;DHT22;56411;52.964;10.540;2023-10-31T15:01:35;10.50;99.90
16102;DHT22;56411;52.964;10.540;2023-10-31T15:04:04;10.50;99.90
16102;DHT22;56411;52.964;10.540;2023-10-31T15:06:31;10.50;99.90
16102;DHT22;56411;52.964;10.540;2023-10-31T15:08:58;10.50;99.90
16102;DHT22;56411;52.964;10.540;2023-10-31T15:11:25;10.50;99.90
16102;DHT22;56411;52.964;10.540;2023-10-31T15:13:54;10.50;99.90
16102;DHT22;56411;52.964;10.540;2023-10-31T15:16:21;10.50;99.90
16102;DHT22;56411;52.964;10.540;2023-10-31T15:18:49;10.50;99.90
16102;DHT22;56411;52.964;10.540;2023-10-31T15:21:17;10.50;99.90
16102;DHT22;56411;52.964;10.540;2023-10-31T15:23:45;10.40;99.90